Time;durP1;ratioP1;P1;durP2;ratioP2;P2;SDS_P1;SDS_P2;PMS_P1;PMS_P2;Temp;Humidity;BMP_temperature;BMP_pressure;BME280_temperature;BME280_humidity;BME280_pressure;Samples;Min_cycle;Max_cycle;Signal;HPM_P1;HPM_P2
2023/10/16 00:02:12;;;;;;;4.45;2.20;;;;;;;;;;5098355;28;43191;-71
2023/10/16 00:04:43;;;;;;;4.13;2.30;;;;;;;;;;5088017;28;40987;-72
2023/10/16 00:07:13;;;;;;;3.25;1.90;;;;;;;;;;5088658;28;41502;-71
2023/10/16 00:09:41;;;;;;;2.97;1.95;;;;;;;;;;5088728;28;42255;-72
2023/10/16 00:12:09;;;;;;;3.47;1.75;;;;;;;;;;5090806;28;41967;-71
2023/10/16 00:14:37;;;;;;;2.33;1.80;;;;;;;;;;5105855;28;41622;-71
2023/10/16 00:17:08;;;;;;;3.53;2.13;;;;;;;;;;5108055;27;42075;-71
2023/10/16 00:19:38;;;;;;;2.42;1.70;;;;;;;;;;5099752;28;41173;-71
2023/10/16 00:22:16;;;;;;;3.60;2.13;;;;;;;;;;5101463;28;41886;-72
2023/10/16 00:24:46;;;;;;;2.17;1.83;;;;;;;;;;5090854;28;40990;-71
2023/10/16 00:27:15;;;;;;;2.22;1.90;;;;;;;;;;5095790;28;40969;-71
2023/10/16 00:29:43;;;;;;;3.30;2.58;;;;;;;;;;5105246;28;41484;-72
2023/10/16 00:32:11;;;;;;;2.67;1.85;;;;;;;;;;5097165;28;38856;-71
2023/10/16 00:34:41;;;;;;;3.90;2.20;;;;;;;;;;5086980;28;41384;-72
2023/10/16 00:37:10;;;;;;;3.65;2.45;;;;;;;;;;5101344;28;40547;-71
2023/10/16 00:39:37;;;;;;;2.47;1.73;;;;;;;;;;5121318;27;39749;-71
2023/10/16 00:42:08;;;;;;;4.95;2.30;;;;;;;;;;5087015;28;41541;-71
2023/10/16 00:44:38;;;;;;;3.20;2.17;;;;;;;;;;5087163;27;41006;-71
2023/10/16 00:47:09;;;;;;;3.78;2.25;;;;;;;;;;5092798;28;41737;-71
2023/10/16 00:49:38;;;;;;;3.38;2.53;;;;;;;;;;5100653;27;41720;-71
2023/10/16 00:52:07;;;;;;;3.17;2.35;;;;;;;;;;5092052;27;41095;-71
2023/10/16 00:54:39;;;;;;;4.03;2.50;;;;;;;;;;5103806;28;42190;-71
2023/10/16 00:57:08;;;;;;;4.28;2.25;;;;;;;;;;5103379;27;42442;-71
2023/10/16 00:59:36;;;;;;;4.10;2.20;;;;;;;;;;5095708;28;41432;-71
2023/10/16 01:02:08;;;;;;;4.25;2.63;;;;;;;;;;5096960;27;41457;-71
2023/10/16 01:04:37;;;;;;;3.35;1.88;;;;;;;;;;5091751;28;42289;-71
2023/10/16 01:07:05;;;;;;;3.15;2.03;;;;;;;;;;5092472;27;40937;-71
2023/10/16 01:09:35;;;;;;;4.07;2.65;;;;;;;;;;5096809;28;42584;-71
2023/10/16 01:12:07;;;;;;;4.03;2.60;;;;;;;;;;5085796;27;40198;-71
2023/10/16 01:14:35;;;;;;;3.38;2.13;;;;;;;;;;5105915;28;41173;-71
2023/10/16 01:17:04;;;;;;;3.45;2.53;;;;;;;;;;5091504;27;43138;-71
2023/10/16 01:19:32;;;;;;;3.90;1.95;;;;;;;;;;5103014;28;40359;-71
2023/10/16 01:22:00;;;;;;;4.40;2.70;;;;;;;;;;5107402;28;41600;-71
2023/10/16 01:24:29;;;;;;;3.67;2.25;;;;;;;;;;5094044;28;42024;-71
2023/10/16 01:27:06;;;;;;;4.05;2.42;;;;;;;;;;5107188;27;40097;-71
2023/10/16 01:29:35;;;;;;;3.25;2.35;;;;;;;;;;5091564;28;41725;-71
2023/10/16 01:32:04;;;;;;;3.85;2.42;;;;;;;;;;5106936;28;41405;-71
2023/10/16 01:34:34;;;;;;;5.95;2.63;;;;;;;;;;5104266;28;40050;-71
2023/10/16 01:37:08;;;;;;;4.57;2.70;;;;;;;;;;5096975;28;41796;-71
2023/10/16 01:39:53;;;;;;;2.83;2.20;;;;;;;;;;5103543;27;40599;-71
2023/10/16 01:42:23;;;;;;;3.08;2.22;;;;;;;;;;5093231;28;41122;-71
2023/10/16 01:44:52;;;;;;;4.05;2.75;;;;;;;;;;5088159;27;40274;-70
2023/10/16 01:47:20;;;;;;;3.78;2.67;;;;;;;;;;5104168;28;40797;-71
2023/10/16 01:49:48;;;;;;;3.05;1.83;;;;;;;;;;5110053;27;42007;-71
2023/10/16 01:52:17;;;;;;;2.95;2.22;;;;;;;;;;5108469;28;40333;-71
2023/10/16 01:54:46;;;;;;;2.53;1.67;;;;;;;;;;5108101;28;41576;-71
2023/10/16 01:57:15;;;;;;;2.53;2.00;;;;;;;;;;5103827;28;42994;-71
2023/10/16 01:59:44;;;;;;;3.45;2.08;;;;;;;;;;5092013;27;39869;-71
2023/10/16 02:02:12;;;;;;;4.75;2.25;;;;;;;;;;5102659;27;40168;-71
2023/10/16 02:04:42;;;;;;;2.15;1.85;;;;;;;;;;5089149;28;42224;-71
2023/10/16 02:07:11;;;;;;;2.95;2.35;;;;;;;;;;5103777;28;40344;-71
2023/10/16 02:09:39;;;;;;;4.45;2.53;;;;;;;;;;5093412;27;40787;-71
2023/10/16 02:12:10;;;;;;;7.63;2.70;;;;;;;;;;5105056;27;42476;-71
2023/10/16 02:14:40;;;;;;;3.63;2.78;;;;;;;;;;5100553;28;41363;-71
2023/10/16 02:17:14;;;;;;;4.03;2.63;;;;;;;;;;5107532;27;41155;-71
2023/10/16 02:19:45;;;;;;;3.53;2.80;;;;;;;;;;5099148;28;39007;-71
2023/10/16 02:22:16;;;;;;;4.65;3.20;;;;;;;;;;5102446;28;41408;-71
2023/10/16 02:24:48;;;;;;;3.05;2.25;;;;;;;;;;5098680;28;42227;-71
2023/10/16 02:27:19;;;;;;;3.65;2.58;;;;;;;;;;5100587;27;41496;-71
2023/10/16 02:29:51;;;;;;;4.47;3.20;;;;;;;;;;5108174;27;42624;-71
2023/10/16 02:32:22;;;;;;;3.67;2.05;;;;;;;;;;5106517;27;42037;-71
2023/10/16 02:34:51;;;;;;;2.50;2.30;;;;;;;;;;5100047;28;41063;-70
2023/10/16 02:37:20;;;;;;;5.72;2.83;;;;;;;;;;5093679;28;42612;-71
2023/10/16 02:39:53;;;;;;;4.15;2.92;;;;;;;;;;5095643;28;40049;-71
2023/10/16 02:42:25;;;;;;;4.28;2.95;;;;;;;;;;5108141;28;41332;-71
2023/10/16 02:44:54;;;;;;;2.88;2.20;;;;;;;;;;5099992;28;41296;-71
2023/10/16 02:47:25;;;;;;;4.82;2.88;;;;;;;;;;5099063;28;39154;-71
2023/10/16 02:49:56;;;;;;;4.70;3.08;;;;;;;;;;5102308;27;41379;-72
2023/10/16 02:52:25;;;;;;;2.88;2.53;;;;;;;;;;5108176;27;43203;-71
2023/10/16 02:54:56;;;;;;;3.58;2.85;;;;;;;;;;5108683;28;39645;-71
2023/10/16 02:57:28;;;;;;;4.28;3.08;;;;;;;;;;5106391;27;40199;-71
2023/10/16 02:59:56;;;;;;;3.92;2.80;;;;;;;;;;5106022;28;39901;-71
2023/10/16 03:02:27;;;;;;;4.32;2.97;;;;;;;;;;5098645;28;41744;-71
2023/10/16 03:05:09;;;;;;;5.13;3.53;;;;;;;;;;5106525;27;42358;-71
2023/10/16 03:07:39;;;;;;;3.40;2.72;;;;;;;;;;5096123;28;40195;-71
2023/10/16 03:10:08;;;;;;;3.30;2.67;;;;;;;;;;5108852;27;41640;-71
2023/10/16 03:12:38;;;;;;;3.95;2.50;;;;;;;;;;5097540;28;41754;-71
2023/10/16 03:15:15;;;;;;;4.88;2.90;;;;;;;;;;5099175;28;38857;-71
2023/10/16 03:17:42;;;;;;;2.97;2.03;;;;;;;;;;5091760;27;41107;-71
2023/10/16 03:20:19;;;;;;;2.92;2.33;;;;;;;;;;5105489;28;41960;-71
2023/10/16 03:22:50;;;;;;;2.85;2.22;;;;;;;;;;5097963;28;41368;-71
2023/10/16 03:25:29;;;;;;;2.65;2.15;;;;;;;;;;5103938;28;42556;-71
2023/10/16 03:28:00;;;;;;;5.97;2.63;;;;;;;;;;5109427;27;40428;-71
2023/10/16 03:30:30;;;;;;;4.95;2.55;;;;;;;;;;5106199;27;41192;-71
2023/10/16 03:32:59;;;;;;;3.00;2.22;;;;;;;;;;5108443;28;42143;-71
2023/10/16 03:35:29;;;;;;;4.45;2.50;;;;;;;;;;5094641;28;40424;-71
2023/10/16 03:37:58;;;;;;;2.63;2.15;;;;;;;;;;5104076;27;42502;-71
2023/10/16 03:40:27;;;;;;;5.15;2.35;;;;;;;;;;5093567;27;40758;-71
2023/10/16 03:42:55;;;;;;;2.40;2.10;;;;;;;;;;5094217;27;40878;-70
2023/10/16 03:45:26;;;;;;;3.05;2.38;;;;;;;;;;5107334;28;40946;-71
2023/10/16 03:47:57;;;;;;;2.90;2.15;;;;;;;;;;5101995;27;40321;-71
2023/10/16 03:50:26;;;;;;;2.78;1.95;;;;;;;;;;5095706;28;41573;-71
2023/10/16 03:52:55;;;;;;;3.25;2.28;;;;;;;;;;5108301;27;42073;-71
2023/10/16 03:55:25;;;;;;;3.20;2.15;;;;;;;;;;5109669;28;40003;-71
2023/10/16 03:57:53;;;;;;;2.30;1.83;;;;;;;;;;5105242;28;39980;-71
2023/10/16 04:00:26;;;;;;;2.67;2.20;;;;;;;;;;5109781;28;41953;-71
2023/10/16 04:02:59;;;;;;;3.13;2.63;;;;;;;;;;5108439;28;41346;-70
2023/10/16 04:05:45;;;;;;;3.53;2.28;;;;;;;;;;5099560;28;41760;-71
2023/10/16 04:08:14;;;;;;;2.40;2.13;;;;;;;;;;5101335;28;41741;-71
2023/10/16 04:10:46;;;;;;;3.50;1.70;;;;;;;;;;5093961;28;41781;-71
2023/10/16 04:13:18;;;;;;;2.30;1.73;;;;;;;;;;5097346;28;42979;-71
2023/10/16 04:16:09;;;;;;;3.92;2.28;;;;;;;;;;5105504;28;39702;-70
2023/10/16 04:18:39;;;;;;;3.00;1.85;;;;;;;;;;5104761;28;42606;-70
2023/10/16 04:23:53;;;;;;;2.95;1.52;;;;;;;;;;5105790;27;40566;-70
2023/10/16 04:26:33;;;;;;;3.70;1.75;;;;;;;;;;5088481;28;42092;-70
2023/10/16 04:31:56;;;;;;;5.75;5.13;;;;;;;;;;5094792;28;42603;-70
2023/10/16 04:34:31;;;;;;;3.30;2.22;;;;;;;;;;5092542;27;41899;-70
2023/10/16 04:48:06;;;;;;;3.20;2.13;;;;;;;;;;5090075;27;41728;-70
2023/10/16 04:50:40;;;;;;;2.63;2.20;;;;;;;;;;5108019;27;42085;-70
2023/10/16 04:53:28;;;;;;;2.80;2.20;;;;;;;;;;5091886;28;42545;-70
2023/10/16 04:56:04;;;;;;;3.08;2.22;;;;;;;;;;5098857;28;43093;-70
2023/10/16 05:07:37;;;;;;;2.83;1.92;;;;;;;;;;5096858;28;40833;-70
2023/10/16 05:13:24;;;;;;;2.60;1.85;;;;;;;;;;5096647;28;42084;-70
2023/10/16 05:18:46;;;;;;;3.08;2.08;;;;;;;;;;5093077;28;41549;-70
2023/10/16 06:16:35;;;;;;;2.08;1.67;;;;;;;;;;5104730;28;42152;-71
2023/10/16 06:19:07;;;;;;;4.32;1.95;;;;;;;;;;5099679;28;42150;-70
2023/10/16 06:21:35;;;;;;;2.03;1.65;;;;;;;;;;5088504;28;41368;-71
2023/10/16 06:24:17;;;;;;;2.28;1.83;;;;;;;;;;5106352;27;41682;-70
2023/10/16 06:26:46;;;;;;;2.03;1.55;;;;;;;;;;5098002;28;41965;-70
2023/10/16 06:29:15;;;;;;;4.35;1.80;;;;;;;;;;5109816;28;41206;-71
2023/10/16 06:31:50;;;;;;;1.92;1.52;;;;;;;;;;5094999;27;43202;-71
2023/10/16 06:34:18;;;;;;;3.33;1.75;;;;;;;;;;5095251;28;39757;-71
2023/10/16 06:36:46;;;;;;;3.33;1.85;;;;;;;;;;5094193;27;41700;-71
2023/10/16 06:39:27;;;;;;;3.17;1.90;;;;;;;;;;5100390;28;42084;-71
2023/10/16 06:41:56;;;;;;;2.22;1.60;;;;;;;;;;5098263;28;41304;-70
2023/10/16 06:44:29;;;;;;;2.33;1.55;;;;;;;;;;5104440;28;41427;-71
2023/10/16 06:46:59;;;;;;;5.03;1.98;;;;;;;;;;5098481;28;41571;-70
2023/10/16 06:49:28;;;;;;;2.35;1.60;;;;;;;;;;5097399;28;40375;-71
2023/10/16 06:51:58;;;;;;;1.73;1.45;;;;;;;;;;5105886;28;42663;-71
2023/10/16 06:54:26;;;;;;;1.75;1.60;;;;;;;;;;5090627;27;40175;-70
2023/10/16 06:56:54;;;;;;;2.75;1.55;;;;;;;;;;5102943;28;41485;-70
2023/10/16 06:59:22;;;;;;;1.92;1.50;;;;;;;;;;5104866;28;43081;-70
2023/10/16 07:01:51;;;;;;;2.33;1.42;;;;;;;;;;5099834;28;40064;-71
2023/10/16 07:04:20;;;;;;;1.92;1.40;;;;;;;;;;5102023;28;42584;-70
2023/10/16 07:06:48;;;;;;;3.17;1.45;;;;;;;;;;5097979;28;42035;-70
2023/10/16 07:09:17;;;;;;;1.67;1.27;;;;;;;;;;5099612;28;41061;-70
2023/10/16 07:11:45;;;;;;;2.65;1.98;;;;;;;;;;5093281;28;41631;-70
2023/10/16 07:14:17;;;;;;;6.10;1.80;;;;;;;;;;5099385;27;41991;-71
2023/10/16 07:16:45;;;;;;;2.22;1.65;;;;;;;;;;5106419;28;41429;-71
2023/10/16 07:19:18;;;;;;;7.30;1.50;;;;;;;;;;5109125;27;41963;-69
2023/10/16 07:21:48;;;;;;;4.00;1.90;;;;;;;;;;5097735;28;40195;-69
2023/10/16 07:24:16;;;;;;;5.30;1.13;;;;;;;;;;5107110;28;41003;-69
2023/10/16 07:26:45;;;;;;;1.88;1.10;;;;;;;;;;5098251;28;42945;-69
2023/10/16 07:29:13;;;;;;;2.40;1.38;;;;;;;;;;5090900;28;40147;-69
2023/10/16 07:31:41;;;;;;;2.85;1.15;;;;;;;;;;5099851;27;42436;-69
2023/10/16 07:34:09;;;;;;;7.03;1.35;;;;;;;;;;5103643;27;42181;-69
2023/10/16 07:36:38;;;;;;;4.00;1.48;;;;;;;;;;5107690;27;42678;-70
2023/10/16 07:39:06;;;;;;;3.83;1.92;;;;;;;;;;5106796;27;41175;-69
2023/10/16 07:41:37;;;;;;;5.15;2.78;;;;;;;;;;5088922;28;40617;-69
2023/10/16 07:44:06;;;;;;;4.55;3.05;;;;;;;;;;5083833;28;42149;-69
2023/10/16 07:46:36;;;;;;;5.55;1.45;;;;;;;;;;5091032;27;42220;-69
2023/10/16 07:49:09;;;;;;;2.95;1.85;;;;;;;;;;5090217;27;41342;-69
2023/10/16 07:51:45;;;;;;;5.28;1.10;;;;;;;;;;5093717;28;42743;-69
2023/10/16 07:54:13;;;;;;;7.65;1.42;;;;;;;;;;5107420;28;42027;-69
2023/10/16 07:56:41;;;;;;;10.60;1.40;;;;;;;;;;5102737;28;40255;-69
2023/10/16 07:59:10;;;;;;;15.23;2.00;;;;;;;;;;5095552;28;42073;-69
2023/10/16 08:01:48;;;;;;;5.95;2.08;;;;;;;;;;5103280;27;40563;-70
2023/10/16 08:04:27;;;;;;;7.20;1.38;;;;;;;;;;5097850;28;42458;-69
2023/10/16 08:07:04;;;;;;;4.25;1.42;;;;;;;;;;5095670;28;42945;-70
2023/10/16 08:10:28;;;;;;;1.88;1.10;;;;;;;;;;5087259;27;40536;-69
2023/10/16 08:12:46;;;;;;;3.58;0.80;;;;;;;;;;5099430;27;42560;-69
2023/10/16 08:15:21;;;;;;;4.18;1.10;;;;;;;;;;5090044;27;43054;-69
2023/10/16 08:17:49;;;;;;;4.50;1.17;;;;;;;;;;5087168;28;40629;-69
2023/10/16 08:20:21;;;;;;;4.15;0.85;;;;;;;;;;5089106;28;43252;-69
2023/10/16 08:22:50;;;;;;;5.72;0.98;;;;;;;;;;5103211;28;40071;-69
2023/10/16 08:25:31;;;;;;;2.65;0.80;;;;;;;;;;5097256;28;41634;-69
2023/10/16 08:28:00;;;;;;;3.72;0.82;;;;;;;;;;5099460;28;42058;-70
2023/10/16 08:30:48;;;;;;;5.28;0.98;;;;;;;;;;5108154;28;40970;-69
2023/10/16 08:33:17;;;;;;;6.95;1.17;;;;;;;;;;5093634;27;41718;-71
2023/10/16 08:35:45;;;;;;;7.95;1.67;;;;;;;;;;5096238;27;42833;-70
2023/10/16 08:38:20;;;;;;;5.45;0.98;;;;;;;;;;5096802;27;39778;-70
2023/10/16 08:40:57;;;;;;;4.25;1.20;;;;;;;;;;5085640;27;41055;-70
2023/10/16 08:43:39;;;;;;;5.03;1.35;;;;;;;;;;5094565;28;40207;-70
2023/10/16 08:46:18;;;;;;;4.07;0.88;;;;;;;;;;5099181;27;41871;-70
2023/10/16 08:48:48;;;;;;;2.92;0.80;;;;;;;;;;5100487;27;42215;-70
2023/10/16 08:51:17;;;;;;;7.53;1.00;;;;;;;;;;5095698;27;39884;-69
2023/10/16 08:53:46;;;;;;;2.70;0.82;;;;;;;;;;5095862;27;41682;-70
2023/10/16 08:56:17;;;;;;;3.28;0.80;;;;;;;;;;5090616;27;42533;-73
2023/10/16 08:58:45;;;;;;;3.38;1.10;;;;;;;;;;5090799;28;41370;-71
2023/10/16 09:01:14;;;;;;;3.55;1.00;;;;;;;;;;5099029;28;42658;-71
2023/10/16 09:03:44;;;;;;;3.22;0.65;;;;;;;;;;5092798;27;43167;-72
2023/10/16 09:06:21;;;;;;;3.45;0.95;;;;;;;;;;5106363;27;42512;-71
2023/10/16 09:08:50;;;;;;;4.18;1.27;;;;;;;;;;5090543;27;42690;-71
2023/10/16 09:11:19;;;;;;;9.07;1.10;;;;;;;;;;5100460;28;41499;-70
2023/10/16 09:13:50;;;;;;;5.28;0.93;;;;;;;;;;5097420;27;40572;-71
2023/10/16 09:16:21;;;;;;;4.38;1.05;;;;;;;;;;5097320;28;41683;-70
2023/10/16 09:18:49;;;;;;;4.22;0.90;;;;;;;;;;5098533;27;41277;-70
2023/10/16 09:21:22;;;;;;;7.97;1.40;;;;;;;;;;5103011;27;41725;-68
2023/10/16 09:23:53;;;;;;;7.28;0.90;;;;;;;;;;5091850;27;41067;-68
2023/10/16 09:26:23;;;;;;;3.10;0.98;;;;;;;;;;5099182;27;41889;-69
2023/10/16 09:28:53;;;;;;;6.10;0.95;;;;;;;;;;5096960;28;41315;-71
2023/10/16 09:31:24;;;;;;;22.15;2.72;;;;;;;;;;5095979;28;40475;-70
2023/10/16 09:33:52;;;;;;;12.30;1.30;;;;;;;;;;5097171;28;41515;-69
2023/10/16 09:36:21;;;;;;;10.27;1.23;;;;;;;;;;5092494;28;42084;-70
2023/10/16 09:38:52;;;;;;;14.55;1.58;;;;;;;;;;5091349;28;40194;-69
2023/10/16 09:41:40;;;;;;;5.65;1.00;;;;;;;;;;5091017;28;42266;-69
2023/10/16 09:44:09;;;;;;;6.10;1.17;;;;;;;;;;5087202;28;42249;-69
2023/10/16 09:46:56;;;;;;;7.90;0.93;;;;;;;;;;5089336;28;42525;-69
2023/10/16 09:49:25;;;;;;;9.63;1.33;;;;;;;;;;5094650;28;42302;-70
2023/10/16 09:51:59;;;;;;;10.07;1.00;;;;;;;;;;5097660;28;41114;-69
2023/10/16 09:54:30;;;;;;;5.60;1.00;;;;;;;;;;5092516;27;43136;-70
2023/10/16 09:57:00;;;;;;;12.85;1.20;;;;;;;;;;5089105;28;41751;-69
2023/10/16 09:59:32;;;;;;;20.33;2.30;;;;;;;;;;5106720;27;40348;-70
2023/10/16 10:02:05;;;;;;;24.98;2.75;;;;;;;;;;5092011;27;40995;-70
2023/10/16 10:04:35;;;;;;;15.23;4.40;;;;;;;;;;5130327;27;40077;-70
2023/10/16 10:07:05;;;;;;;26.00;6.45;;;;;;;;;;5100266;27;40557;-75
2023/10/16 10:09:42;;;;;;;11.95;3.65;;;;;;;;;;5098842;27;41307;-69
2023/10/16 10:12:13;;;;;;;26.80;16.02;;;;;;;;;;5102004;28;33166;-69
2023/10/16 10:14:48;;;;;;;19.80;5.95;;;;;;;;;;5104079;27;41685;-69
2023/10/16 10:17:19;;;;;;;47.85;39.70;;;;;;;;;;5106751;28;44344;-69
2023/10/16 10:19:54;;;;;;;17.60;6.75;;;;;;;;;;5098004;27;41432;-69
2023/10/16 10:22:27;;;;;;;20.52;9.57;;;;;;;;;;5102227;28;41519;-69
2023/10/16 10:25:08;;;;;;;19.00;7.50;;;;;;;;;;5095722;28;41677;-69
2023/10/16 10:27:48;;;;;;;13.45;6.65;;;;;;;;;;5104345;27;40570;-69
2023/10/16 10:30:18;;;;;;;14.85;6.75;;;;;;;;;;5100131;28;42637;-68
2023/10/16 10:32:55;;;;;;;13.77;4.40;;;;;;;;;;5098267;28;41600;-69
2023/10/16 10:35:26;;;;;;;11.13;4.45;;;;;;;;;;5097843;27;41787;-68
2023/10/16 10:38:17;;;;;;;9.88;2.83;;;;;;;;;;5093214;27;41607;-68
2023/10/16 10:41:03;;;;;;;9.80;4.82;;;;;;;;;;5092097;27;41159;-69
2023/10/16 10:43:46;;;;;;;13.80;3.85;;;;;;;;;;5093368;27;42555;-68
2023/10/16 10:46:15;;;;;;;7.40;3.90;;;;;;;;;;5094731;27;41763;-68
2023/10/16 10:48:44;;;;;;;6.57;3.08;;;;;;;;;;5099178;28;40590;-69
2023/10/16 10:51:14;;;;;;;8.30;2.85;;;;;;;;;;5107715;27;41486;-68
2023/10/16 10:53:57;;;;;;;11.38;3.00;;;;;;;;;;5106326;28;41961;-68
2023/10/16 10:56:38;;;;;;;13.85;3.42;;;;;;;;;;5103564;27;41225;-69
2023/10/16 10:59:10;;;;;;;5.93;2.03;;;;;;;;;;5103249;28;42882;-70
2023/10/16 11:01:44;;;;;;;10.35;3.47;;;;;;;;;;5105971;28;39783;-71
2023/10/16 11:04:16;;;;;;;12.02;3.67;;;;;;;;;;5104280;28;41387;-68
2023/10/16 11:06:49;;;;;;;10.13;2.80;;;;;;;;;;5099562;28;41965;-68
2023/10/16 11:09:20;;;;;;;24.38;4.05;;;;;;;;;;5102591;27;40382;-68
2023/10/16 11:11:50;;;;;;;7.10;2.92;;;;;;;;;;5103573;28;41376;-70
2023/10/16 11:14:21;;;;;;;9.57;2.97;;;;;;;;;;5104336;28;42090;-70
2023/10/16 11:16:49;;;;;;;9.55;2.50;;;;;;;;;;5107537;27;40487;-68
2023/10/16 11:19:28;;;;;;;9.38;2.83;;;;;;;;;;5107182;28;41637;-72
2023/10/16 11:22:02;;;;;;;9.23;2.42;;;;;;;;;;5099606;28;40036;-72
2023/10/16 11:24:30;;;;;;;8.10;1.60;;;;;;;;;;5104980;28;41693;-69
2023/10/16 11:27:05;;;;;;;12.23;2.20;;;;;;;;;;5104609;28;42029;-71
2023/10/16 11:29:34;;;;;;;16.40;2.25;;;;;;;;;;5098603;28;41506;-71
2023/10/16 11:32:06;;;;;;;11.98;2.45;;;;;;;;;;5102536;28;41363;-71
2023/10/16 11:34:41;;;;;;;8.02;1.98;;;;;;;;;;5102281;28;42123;-71
2023/10/16 11:37:12;;;;;;;17.42;2.97;;;;;;;;;;5104777;27;40029;-71
2023/10/16 11:39:41;;;;;;;21.45;3.03;;;;;;;;;;5104694;27;42082;-71
2023/10/16 11:42:11;;;;;;;8.57;2.00;;;;;;;;;;5104637;28;41881;-71
2023/10/16 11:44:42;;;;;;;22.52;3.15;;;;;;;;;;5101410;27;41700;-71
2023/10/16 11:47:17;;;;;;;13.18;3.13;;;;;;;;;;5105069;28;41711;-72
2023/10/16 11:49:53;;;;;;;19.27;3.20;;;;;;;;;;5099271;27;40948;-71
2023/10/16 11:52:22;;;;;;;15.95;3.25;;;;;;;;;;5096203;28;41614;-70
2023/10/16 11:54:53;;;;;;;12.77;2.35;;;;;;;;;;5102361;27;42475;-70
2023/10/16 11:57:21;;;;;;;16.83;2.67;;;;;;;;;;5101896;28;39945;-70
2023/10/16 11:59:51;;;;;;;7.18;2.17;;;;;;;;;;5107486;28;41361;-70
2023/10/16 12:02:21;;;;;;;28.95;4.97;;;;;;;;;;5105870;27;43206;-70
2023/10/16 12:04:49;;;;;;;26.38;4.10;;;;;;;;;;5107115;27;40567;-71
2023/10/16 12:07:18;;;;;;;29.52;4.05;;;;;;;;;;5106704;28;43084;-72
2023/10/16 12:09:50;;;;;;;32.13;4.50;;;;;;;;;;5097991;28;38494;-73
2023/10/16 12:12:20;;;;;;;25.30;3.55;;;;;;;;;;5092080;27;42795;-71
2023/10/16 12:14:50;;;;;;;23.17;3.45;;;;;;;;;;5100356;27;42353;-73
2023/10/16 12:17:19;;;;;;;26.75;4.45;;;;;;;;;;5095001;27;40159;-72
2023/10/16 12:19:47;;;;;;;19.20;3.78;;;;;;;;;;5098224;28;42123;-72
2023/10/16 12:22:19;;;;;;;14.43;2.80;;;;;;;;;;5095461;28;43721;-72
2023/10/16 12:24:47;;;;;;;9.40;2.33;;;;;;;;;;5099000;27;40352;-72
2023/10/16 12:27:16;;;;;;;13.98;3.03;;;;;;;;;;5100972;27;41699;-72
2023/10/16 12:29:44;;;;;;;15.95;2.60;;;;;;;;;;5095176;28;41319;-72
2023/10/16 12:32:14;;;;;;;12.55;3.00;;;;;;;;;;5101121;27;40898;-72
2023/10/16 12:34:42;;;;;;;23.73;2.97;;;;;;;;;;5097397;28;42246;-73
2023/10/16 12:37:11;;;;;;;16.65;3.17;;;;;;;;;;5104933;28;40242;-72
2023/10/16 12:39:46;;;;;;;15.98;3.55;;;;;;;;;;5105146;28;42239;-72
2023/10/16 12:42:15;;;;;;;10.93;2.75;;;;;;;;;;5096971;27;42063;-73
2023/10/16 12:44:44;;;;;;;14.52;2.33;;;;;;;;;;5099920;28;41026;-73
2023/10/16 12:47:14;;;;;;;15.15;2.20;;;;;;;;;;5103124;28;41854;-70
2023/10/16 12:50:04;;;;;;;10.65;1.95;;;;;;;;;;5106105;28;41002;-71
2023/10/16 12:52:32;;;;;;;12.00;2.33;;;;;;;;;;5104078;28;40902;-71
2023/10/16 12:55:01;;;;;;;12.55;2.50;;;;;;;;;;5103080;28;41822;-71
2023/10/16 12:57:29;;;;;;;14.93;2.15;;;;;;;;;;5095188;28;40963;-69
2023/10/16 12:59:57;;;;;;;17.52;2.15;;;;;;;;;;5099309;27;41459;-70
2023/10/16 13:02:26;;;;;;;10.18;1.95;;;;;;;;;;5100609;28;42413;-70
2023/10/16 13:04:55;;;;;;;12.07;2.38;;;;;;;;;;5090046;28;38741;-70
2023/10/16 13:07:26;;;;;;;15.68;2.03;;;;;;;;;;5099998;28;41615;-70
2023/10/16 13:10:10;;;;;;;13.38;2.38;;;;;;;;;;5101413;28;41872;-70
2023/10/16 13:12:39;;;;;;;11.85;1.70;;;;;;;;;;5105653;28;40574;-70
2023/10/16 13:15:09;;;;;;;9.25;1.77;;;;;;;;;;5106593;28;42099;-68
2023/10/16 13:17:39;;;;;;;8.20;1.85;;;;;;;;;;5102736;27;41389;-69
2023/10/16 13:20:13;;;;;;;12.95;2.00;;;;;;;;;;5105983;28;41914;-69
2023/10/16 13:22:41;;;;;;;4.97;1.27;;;;;;;;;;5100794;28;42789;-70
2023/10/16 13:25:12;;;;;;;8.85;1.58;;;;;;;;;;5106492;28;41284;-72
2023/10/16 13:27:40;;;;;;;7.30;1.42;;;;;;;;;;5099290;28;41669;-70
2023/10/16 13:30:11;;;;;;;5.15;1.38;;;;;;;;;;5104690;28;42240;-69
2023/10/16 13:32:41;;;;;;;7.50;1.20;;;;;;;;;;5097629;28;40570;-69
2023/10/16 13:35:12;;;;;;;10.00;1.50;;;;;;;;;;5099998;28;41575;-69
2023/10/16 13:37:42;;;;;;;8.02;1.20;;;;;;;;;;5097130;27;40519;-69
2023/10/16 13:40:20;;;;;;;7.32;1.50;;;;;;;;;;5105864;28;41805;-69
2023/10/16 13:42:49;;;;;;;6.28;1.58;;;;;;;;;;5100886;27;42202;-70
2023/10/16 13:45:17;;;;;;;9.10;1.58;;;;;;;;;;5107716;28;41466;-70
2023/10/16 13:47:46;;;;;;;4.60;1.23;;;;;;;;;;5099599;28;41207;-70
2023/10/16 13:50:15;;;;;;;7.05;1.42;;;;;;;;;;5108342;28;42697;-70
2023/10/16 13:52:43;;;;;;;5.18;1.27;;;;;;;;;;5104968;27;40184;-69
2023/10/16 13:55:14;;;;;;;8.13;1.60;;;;;;;;;;5105290;28;41767;-68
2023/10/16 13:57:43;;;;;;;5.75;1.23;;;;;;;;;;5108358;28;39935;-69
2023/10/16 14:00:18;;;;;;;6.10;1.35;;;;;;;;;;5109511;27;41166;-69
2023/10/16 14:02:47;;;;;;;3.92;1.10;;;;;;;;;;5106227;28;42799;-69
2023/10/16 14:05:20;;;;;;;4.43;1.20;;;;;;;;;;5110603;27;40010;-69
2023/10/16 14:07:48;;;;;;;5.00;1.30;;;;;;;;;;5104115;28;42323;-69
2023/10/16 14:10:21;;;;;;;6.57;1.85;;;;;;;;;;5104474;28;43911;-68
2023/10/16 14:12:54;;;;;;;3.45;0.90;;;;;;;;;;5103197;28;38597;-69
2023/10/16 14:15:32;;;;;;;3.55;1.08;;;;;;;;;;5105291;27;41476;-68
2023/10/16 14:18:02;;;;;;;3.28;1.50;;;;;;;;;;5103967;28;43236;-68
2023/10/16 14:20:36;;;;;;;5.80;1.35;;;;;;;;;;5097288;27;41545;-71
2023/10/16 14:23:09;;;;;;;4.15;1.55;;;;;;;;;;5102763;28;41777;-70
2023/10/16 14:25:41;;;;;;;2.60;0.93;;;;;;;;;;5098493;28;40546;-69
2023/10/16 14:28:25;;;;;;;5.85;1.38;;;;;;;;;;5101877;28;42092;-70
2023/10/16 14:30:55;;;;;;;5.18;1.60;;;;;;;;;;5099856;27;40740;-69
2023/10/16 14:33:28;;;;;;;5.00;1.30;;;;;;;;;;5103306;27;40974;-69
2023/10/16 14:35:57;;;;;;;5.03;0.93;;;;;;;;;;5099412;27;42531;-70
2023/10/16 14:38:25;;;;;;;6.72;1.65;;;;;;;;;;5107988;28;42240;-70
2023/10/16 14:40:55;;;;;;;14.38;8.23;;;;;;;;;;5106925;27;41418;-69
2023/10/16 14:43:23;;;;;;;4.43;2.25;;;;;;;;;;5102769;27;43016;-68
2023/10/16 14:45:53;;;;;;;4.82;1.88;;;;;;;;;;5107210;27;40463;-69
2023/10/16 14:48:22;;;;;;;3.67;1.67;;;;;;;;;;5098921;27;41631;-69
2023/10/16 14:50:52;;;;;;;5.68;2.20;;;;;;;;;;5106656;28;43383;-69
2023/10/16 14:53:21;;;;;;;4.22;1.67;;;;;;;;;;5100402;28;40278;-69
2023/10/16 14:55:49;;;;;;;5.93;1.65;;;;;;;;;;5105001;27;41046;-69
2023/10/16 14:58:18;;;;;;;6.55;2.03;;;;;;;;;;5099917;27;41767;-68
2023/10/16 15:01:15;;;;;;;7.00;2.38;;;;;;;;;;5107572;28;38707;-69
2023/10/16 15:03:43;;;;;;;8.40;1.90;;;;;;;;;;5103968;28;42044;-70
2023/10/16 15:06:15;;;;;;;11.25;1.77;;;;;;;;;;5107566;28;40481;-69
2023/10/16 15:08:43;;;;;;;5.90;1.70;;;;;;;;;;5099360;28;42261;-70
2023/10/16 15:11:11;;;;;;;13.90;2.10;;;;;;;;;;5107935;28;42682;-71
2023/10/16 15:13:39;;;;;;;10.40;1.85;;;;;;;;;;5102380;27;40079;-70
2023/10/16 15:16:08;;;;;;;11.73;1.48;;;;;;;;;;5101191;27;41093;-71
2023/10/16 15:18:38;;;;;;;11.68;1.88;;;;;;;;;;5106594;28;41723;-71
2023/10/16 15:21:07;;;;;;;6.63;1.63;;;;;;;;;;5101387;27;41179;-70
2023/10/16 15:23:37;;;;;;;6.88;1.70;;;;;;;;;;5106684;28;42045;-70
2023/10/16 15:26:06;;;;;;;4.82;1.77;;;;;;;;;;5104514;27;40401;-71
2023/10/16 15:28:35;;;;;;;8.23;1.92;;;;;;;;;;5107080;28;41753;-71
2023/10/16 15:31:15;;;;;;;3.88;1.63;;;;;;;;;;5101997;28;43126;-70
2023/10/16 15:33:44;;;;;;;6.25;1.58;;;;;;;;;;5103139;28;40739;-70
2023/10/16 15:36:17;;;;;;;3.15;1.52;;;;;;;;;;5096125;27;42171;-70
2023/10/16 15:38:48;;;;;;;4.80;1.50;;;;;;;;;;5107714;28;42780;-71
2023/10/16 15:41:16;;;;;;;7.75;1.40;;;;;;;;;;5088874;28;41160;-70
2023/10/16 15:43:44;;;;;;;6.32;1.58;;;;;;;;;;5104868;27;41614;-70
2023/10/16 15:46:25;;;;;;;7.50;1.25;;;;;;;;;;5091536;28;41822;-70
2023/10/16 15:48:54;;;;;;;3.80;1.40;;;;;;;;;;5097095;28;41606;-69
2023/10/16 15:51:23;;;;;;;6.20;1.65;;;;;;;;;;5091527;27;41505;-69
2023/10/16 15:53:53;;;;;;;3.80;1.45;;;;;;;;;;5094950;28;40279;-69
2023/10/16 15:56:21;;;;;;;5.68;1.65;;;;;;;;;;5104215;28;41312;-70
2023/10/16 15:58:50;;;;;;;5.70;1.42;;;;;;;;;;5107833;28;42680;-70
2023/10/16 16:01:18;;;;;;;4.32;1.80;;;;;;;;;;5105261;27;41044;-70
2023/10/16 16:03:46;;;;;;;2.30;1.10;;;;;;;;;;5097673;28;42536;-69
2023/10/16 16:06:14;;;;;;;3.60;1.13;;;;;;;;;;5105815;27;42955;-71
2023/10/16 16:08:46;;;;;;;3.40;1.50;;;;;;;;;;5105582;27;40434;-70
2023/10/16 16:11:19;;;;;;;4.50;1.75;;;;;;;;;;5098091;27;42589;-69
2023/10/16 16:13:48;;;;;;;5.10;1.85;;;;;;;;;;5100326;28;40342;-70
2023/10/16 16:16:16;;;;;;;5.88;1.48;;;;;;;;;;5106321;28;42078;-70
2023/10/16 16:18:45;;;;;;;3.72;1.08;;;;;;;;;;5094003;28;42140;-70
2023/10/16 16:21:16;;;;;;;4.15;1.20;;;;;;;;;;5088020;28;40168;-70
2023/10/16 16:23:44;;;;;;;3.67;1.25;;;;;;;;;;5084804;27;41744;-70
2023/10/16 16:26:13;;;;;;;5.15;1.90;;;;;;;;;;5100783;28;42157;-70
2023/10/16 16:28:45;;;;;;;13.32;3.80;;;;;;;;;;5104909;27;40800;-69
2023/10/16 16:31:15;;;;;;;18.40;4.75;;;;;;;;;;5099401;28;41381;-69
2023/10/16 16:33:43;;;;;;;14.68;4.43;;;;;;;;;;5100721;28;41359;-70